< < Back
Terminal Aerodrome Forecast


Current Version              Previous Versions:   1  2  3  4  5  6  7  8  9  

Terminal Aerodrome Forecast

489
FTAK31 PAJN 271100
TAFAHN
TAF
PAHN 271140Z 2712/2812 07008KT P6SM VCSH OVC015
     FM271700 08008KT P6SM VCSH SCT015 OVC035
     FM272100 09006KT P6SM -SHRA OVC040
     FM280300 30008KT 6SM BR BKN030
      AMD LTD TO CLD VIS AND WIND=

Latest METAR

390
SAUS70 KWBC 271300
MTRAHN
METAR KAHN 271251Z 30012G20KT 10SM OVC013 11/08 A2974 RMK AO2 SLP069
T01060078


USA.gov is the U.S. government's official web portal to all federal, state and local government web resources and services.